Bruno, Minnesota
Current Conditions -  °F | °C
As of 6:53 AM on Friday 19 Dec 2014 (Local Time) from KMZH Reporting Station
Overcast Overcast  
Wind Chill: 15°   Ceiling: 900
Heat Index: 21°   Visibility: 10mi
Dew Point: 19°   Wind: 5mph
Humidity: 93%   Direction: 170°S
Pressure: 30.2"   Gusts: NA
Location:  46.28°N, 92.66°W
Report Text: KMZH 191253Z AUTO 17004KT 10SM BKN009 OVC060 M06/M07 A3020 RMK AO2
Loading
Personal Weather Stations






























Interactive Weather Map New forecast layout! Learn more

10-Day Weather Forecast

Advertisements
Track Severe Weather on mobile